JOIDES Resolution — 5BMM3 — position and weather

sailwx.info

Track history (hours):
 
Tides and Currents Weather Stations Pressure Air Temp Water Temp Dewpoint Dewpoint Depression Visibility Wind Speed Wind Dir Waves Ship Positions

Oceanographic research ship JOIDES Resolution (USA)

Ex D5BC.

Ship's website: http://joidesresolution.org/

Detailed information on ship capabilities available from University of Delaware's Ocean Information Center.

Last reported at 2017-Aug-25 18:49 UTC. Time now 2017-Sep-25 11:51 UTC.
Position S 36°10' E 174°59'.
Warning: this ship's position is 30 days out of date.

Length 143 m; draft 6.1 m.

Type: Dredging. MMSI: 208440424.

Date/timePositionNaut miles runAvg speedWind from/ knotsBaromVisibWave heightAir tempDewpointWater temp
2017-Aug-25 18:49S 36°10' E 174°59'510.8
2017-Aug-25 18:20S 36°15' E 174°59'411.0
2017-Aug-25 18:00S 36°19' E 174°59'611.1
2017-Aug-25 17:30S 36°25' E 174°59'611.3
2017-Aug-25 17:00S 36°30' E 174°59'611.3
2017-Aug-25 16:30S 36°36' E 174°58'510.5
2017-Aug-25 16:00S 36°40' E 174°54'510.4
2017-Aug-25 15:30S 36°44' E 174°51'4 8.0
2017-Aug-25 15:00S 36°48' E 174°49'3 5.7
2017-Aug-25 14:30S 36°50' E 174°47'0 0.2
2017-Aug-25 13:00S 36°51' E 174°47'0 0.0
2017-Aug-25 12:30S 36°51' E 174°47'0 0.0
2017-Aug-25 12:00S 36°51' E 174°47'0 0.0
2017-Aug-25 11:24S 36°51' E 174°47'0 0.0
2017-Aug-25 11:00S 36°51' E 174°47'0 0.0
2017-Aug-25 10:30S 36°51' E 174°47'0 0.0
2017-Aug-25 09:09S 36°51' E 174°47'0 0.5
2017-Aug-25 09:00S 36°51' E 174°47'3 5.6
2017-Aug-25 08:30S 36°49' E 174°50'4 8.7
2017-Aug-25 08:00S 36°45' E 174°50'3 6.5
2017-Aug-25 07:30S 36°42' E 174°52'3 6.7
2017-Aug-25 07:00S 36°40' E 174°55'4 7.6
2017-Aug-25 06:30S 36°37' E 174°58'4 7.3
2017-Aug-25 06:00S 36°33' E 174°59'4 7.9
2017-Aug-25 05:30S 36°29' E 174°59'510.2
2017-Aug-25 05:00S 36°24' E 174°59'510.7
2017-Aug-25 04:30S 36°19' E 174°59'  
Track history (hours):
 
Tides and Currents Weather Stations Pressure Air Temp Water Temp Dewpoint Dewpoint Depression Visibility Wind Speed Wind Dir Waves Ship Positions

Oceanographic research ship JOIDES Resolution (USA)

Ex D5BC.

Ship's website: http://joidesresolution.org/

Detailed information on ship capabilities available from University of Delaware's Ocean Information Center.

Last reported at 2017-Aug-25 18:49 UTC. Time now 2017-Sep-25 11:51 UTC.
Position S 36°10' E 174°59'.
Warning: this ship's position is 30 days out of date.

Length 143 m; draft 6.1 m.

Type: Dredging. MMSI: 208440424.

Date/timePositionNaut miles runAvg speedWind from/ knotsBaromVisibWave heightAir tempDewpointWater temp
2017-Aug-25 18:49S 36°10' E 174°59'510.8
2017-Aug-25 18:20S 36°15' E 174°59'411.0
2017-Aug-25 18:00S 36°19' E 174°59'611.1
2017-Aug-25 17:30S 36°25' E 174°59'611.3
2017-Aug-25 17:00S 36°30' E 174°59'611.3
2017-Aug-25 16:30S 36°36' E 174°58'510.5
2017-Aug-25 16:00S 36°40' E 174°54'510.4
2017-Aug-25 15:30S 36°44' E 174°51'4 8.0
2017-Aug-25 15:00S 36°48' E 174°49'3 5.7
2017-Aug-25 14:30S 36°50' E 174°47'0 0.2
2017-Aug-25 13:00S 36°51' E 174°47'0 0.0
2017-Aug-25 12:30S 36°51' E 174°47'0 0.0
2017-Aug-25 12:00S 36°51' E 174°47'0 0.0
2017-Aug-25 11:24S 36°51' E 174°47'0 0.0
2017-Aug-25 11:00S 36°51' E 174°47'0 0.0
2017-Aug-25 10:30S 36°51' E 174°47'0 0.0
2017-Aug-25 09:09S 36°51' E 174°47'0 0.5
2017-Aug-25 09:00S 36°51' E 174°47'3 5.6
2017-Aug-25 08:30S 36°49' E 174°50'4 8.7
2017-Aug-25 08:00S 36°45' E 174°50'3 6.5
2017-Aug-25 07:30S 36°42' E 174°52'3 6.7
2017-Aug-25 07:00S 36°40' E 174°55'4 7.6
2017-Aug-25 06:30S 36°37' E 174°58'4 7.3
2017-Aug-25 06:00S 36°33' E 174°59'4 7.9
2017-Aug-25 05:30S 36°29' E 174°59'510.2
2017-Aug-25 05:00S 36°24' E 174°59'510.7
2017-Aug-25 04:30S 36°19' E 174°59'  

Dump ship's entire track history